Elko Regional Airport Elko US
ICAO: KEKO
IATA: EKO
Category: Medium
Scheduled Services: Yes

Elevation: 5140 ft
TransAlt. 18000 ft.

Airport Communications:
ASOS:119.275
SALT LAKE CNTR:132.25
CTAF:123
UNICOM:123

KEKO Zoom In..

Runways:

(A) RW 05 length 7214 ft width 150 ft
---- / hdg 53

(B) RW 12 length 2871 ft width 60 ft
---- / hdg 118

(C) RW 23 length 7214 ft width 150 ft
---- / hdg 233

(D) RW 30 length 2871 ft width 60 ft
---- / hdg 298

Location; KEKO
Day. 03 / Time. 01.56 Zulu
* Altimeter: 30.14
* Temperature: 29° c. 84.2°f.
* Wind from: 270° Speed 09 kn.
Dewpoint: -01° c.
Visibility: 10 Statute Miles.
Clouds: Clear (automated report).

KEKO 030156Z AUTO 27009KT 10SM CLR 29/M01 A3014 RMK AO2 SLP154 T02891006


Wind From 270°
Speed 09 kn.

 
 
jpsmedia worldairports.se 2020   terms of use